createdAt,value
2022-11-22T03:55:59.850Z,99858.78
2022-11-22T03:58:28.624Z,99871.97
2022-11-22T04:00:57.255Z,99877.13
2022-11-22T04:03:25.655Z,99885.66
2022-11-22T04:05:53.196Z,99881.75
2022-11-22T04:08:20.855Z,99881.22
2022-11-22T04:10:52.268Z,99885.53
2022-11-22T04:13:20.650Z,99887.13
2022-11-22T04:15:48.138Z,99887.22
2022-11-22T04:18:22.852Z,99887.97
2022-11-22T04:21:09.278Z,99909.06
2022-11-22T04:23:36.879Z,99917.97
2022-11-22T04:26:04.461Z,99912.56
2022-11-22T04:29:01.871Z,99918.84
2022-11-22T04:31:38.600Z,99925.25
2022-11-22T04:34:06.265Z,99926.38
2022-11-22T04:36:33.773Z,99920.88
2022-11-22T04:39:01.271Z,99935.50
2022-11-22T04:41:28.862Z,99934.41
2022-11-22T04:44:15.262Z,99939.66
2022-11-22T04:46:43.772Z,99942.97
2022-11-22T04:49:11.416Z,99949.81
2022-11-22T04:51:57.587Z,99943.69
2022-11-22T04:54:28.214Z,99946.78
2022-11-22T04:56:55.935Z,99939.06
2022-11-22T04:59:23.542Z,99940.34
2022-11-22T05:01:52.763Z,99946.63
2022-11-22T05:04:20.293Z,99950.84
2022-11-22T05:06:48.812Z,99944.22
2022-11-22T05:09:16.770Z,99948.41
2022-11-22T05:11:44.460Z,99954.53
2022-11-22T05:14:16.546Z,99968.34
2022-11-22T05:16:45.282Z,99970.41
2022-11-22T05:19:12.984Z,99975.81
2022-11-22T05:21:41.324Z,99976.31
2022-11-22T05:24:09.217Z,99976.56
2022-11-22T05:26:38.723Z,99956.75
2022-11-22T05:29:08.840Z,99956.00
2022-11-22T05:31:38.523Z,99968.69
2022-11-22T05:34:06.234Z,99954.63
2022-11-22T05:36:35.201Z,99960.03
2022-11-22T05:39:03.979Z,99956.94
2022-11-22T05:41:32.349Z,99969.38
2022-11-22T05:44:00.131Z,99955.97
2022-11-22T05:46:30.365Z,99974.09
2022-11-22T05:48:58.885Z,99971.94
2022-11-22T05:51:34.114Z,99982.69
2022-11-22T05:54:02.760Z,99986.63
2022-11-22T05:56:31.042Z,99989.69
2022-11-22T05:58:58.886Z,99989.56
2022-11-22T06:01:26.982Z,99998.31
2022-11-22T06:03:54.882Z,99978.06
2022-11-22T06:06:23.022Z,99992.53
2022-11-22T06:08:51.647Z,99999.22
2022-11-22T06:11:25.680Z,99982.28
2022-11-22T06:14:03.155Z,99977.19
2022-11-22T06:16:30.932Z,99982.66
2022-11-22T06:18:58.803Z,99988.38
2022-11-22T06:21:26.578Z,99992.19
2022-11-22T06:23:55.803Z,99987.47
2022-11-22T06:26:26.922Z,99998.28
2022-11-22T06:28:55.140Z,100004.94
2022-11-22T06:31:25.109Z,100010.78
2022-11-22T06:33:59.573Z,100028.78
2022-11-22T06:36:29.739Z,100028.56
2022-11-22T06:38:58.205Z,100029.97
2022-11-22T06:41:33.007Z,100036.00
2022-11-22T06:44:05.295Z,100024.50
2022-11-22T06:46:33.155Z,100024.34
2022-11-22T06:49:01.077Z,100029.06
2022-11-22T06:51:30.749Z,100035.72
2022-11-22T06:53:59.563Z,100034.16
2022-11-22T06:56:30.087Z,100025.59
2022-11-22T06:58:58.295Z,100020.13
2022-11-22T07:01:28.591Z,100008.16
2022-11-22T07:03:58.659Z,100009.88
2022-11-22T07:06:29.743Z,100014.53
2022-11-22T07:08:57.752Z,100024.00
2022-11-22T07:11:28.171Z,100024.34
2022-11-22T07:14:06.579Z,100016.31
2022-11-22T07:16:37.432Z,100017.78
2022-11-22T07:19:06.109Z,100033.13
2022-11-22T07:21:35.105Z,100037.72
2022-11-22T07:24:04.620Z,100019.97
2022-11-22T07:26:32.204Z,100014.09
2022-11-22T07:28:59.850Z,100014.09
2022-11-22T07:31:28.327Z,100003.09
2022-11-22T07:33:58.024Z,100004.13
2022-11-22T07:36:25.598Z,100024.56
2022-11-22T07:38:53.395Z,100023.66
2022-11-22T07:41:22.268Z,100023.47
2022-11-22T07:43:49.948Z,100020.66
2022-11-22T07:46:29.420Z,100027.09
2022-11-22T07:49:01.776Z,100037.28
2022-11-22T07:51:29.914Z,100026.09
2022-11-22T07:53:58.603Z,100024.31
2022-11-22T07:56:26.167Z,100020.91
2022-11-22T07:58:54.970Z,100016.03
2022-11-22T08:01:23.778Z,100006.50
2022-11-22T08:03:51.773Z,100012.31
2022-11-22T08:06:19.560Z,100009.19
2022-11-22T08:08:47.292Z,99999.91
2022-11-22T08:11:15.179Z,99999.06
2022-11-22T08:13:44.035Z,100002.72
2022-11-22T08:16:16.634Z,100005.84
2022-11-22T08:18:48.909Z,100012.41
2022-11-22T08:21:18.616Z,100026.22
2022-11-22T08:23:48.323Z,100025.09
2022-11-22T08:26:18.153Z,100029.47
2022-11-22T08:28:46.116Z,100040.91
2022-11-22T08:31:19.842Z,100035.78
2022-11-22T08:33:48.953Z,100038.06
2022-11-22T08:36:16.482Z,100040.78
2022-11-22T08:38:44.881Z,100026.38
2022-11-22T08:41:13.150Z,100026.91
2022-11-22T08:43:41.027Z,100011.78
2022-11-22T08:46:08.678Z,100030.44
2022-11-22T08:48:38.360Z,100036.69
2022-11-22T08:51:09.251Z,100027.81
2022-11-22T08:53:42.807Z,100024.72
2022-11-22T08:56:14.004Z,100013.75
2022-11-22T08:58:43.423Z,100013.63
2022-11-22T09:02:21.024Z,100002.16
2022-11-22T09:04:48.653Z,99997.78
2022-11-22T09:10:05.847Z,99992.00
2022-11-22T09:12:37.559Z,100006.44
2022-11-22T09:15:05.588Z,100006.44
2022-11-22T09:17:33.246Z,100017.91
2022-11-22T09:20:00.870Z,100008.03
2022-11-22T09:22:28.780Z,100013.28
2022-11-22T09:24:57.052Z,100011.19
2022-11-22T09:27:24.726Z,100005.09
2022-11-22T09:29:52.343Z,100007.66
2022-11-22T09:32:20.120Z,100019.22
2022-11-22T09:34:47.890Z,100023.69
2022-11-22T09:37:18.584Z,100017.22
2022-11-22T09:39:49.355Z,100011.72
2022-11-22T09:42:28.915Z,100006.56
2022-11-22T09:45:21.143Z,100009.34
2022-11-22T09:47:57.541Z,100010.16
2022-11-22T09:50:51.810Z,99998.91
2022-11-22T09:53:28.560Z,99988.69
2022-11-22T09:56:03.418Z,99990.34
2022-11-22T09:58:47.671Z,99990.25
2022-11-22T10:01:21.715Z,99987.19
2022-11-22T10:03:59.061Z,99987.31
2022-11-22T10:06:35.319Z,99993.84
2022-11-22T10:09:35.434Z,100003.19
2022-11-22T10:12:15.584Z,100001.22
2022-11-22T10:14:54.556Z,99983.44
2022-11-22T10:17:49.487Z,99993.44
2022-11-22T10:20:24.239Z,100004.16
2022-11-22T10:22:53.052Z,100004.38
2022-11-22T10:25:39.996Z,100008.91
2022-11-22T10:28:18.431Z,100006.38
2022-11-22T10:31:00.447Z,100012.44
2022-11-22T10:33:44.012Z,100002.09
2022-11-22T10:36:37.465Z,100008.47
2022-11-22T10:39:11.326Z,100018.84
2022-11-22T10:42:02.432Z,100017.69
2022-11-22T10:44:31.171Z,100030.50
2022-11-22T10:47:04.032Z,100011.34
2022-11-22T10:50:10.331Z,100026.97
2022-11-22T10:52:44.666Z,100014.38
2022-11-22T10:55:22.335Z,100022.25
2022-11-22T10:58:14.071Z,100011.78
2022-11-22T11:00:47.049Z,100023.88
2022-11-22T11:03:36.433Z,100021.31
2022-11-22T11:06:43.486Z,100020.22
2022-11-22T11:10:09.790Z,100037.31
2022-11-22T11:12:32.436Z,100034.66
2022-11-22T11:15:05.488Z,100031.03
2022-11-22T11:17:37.723Z,100028.78
2022-11-22T11:20:17.283Z,100025.50
2022-11-22T11:23:13.255Z,100003.31
2022-11-22T11:25:35.218Z,100025.94
2022-11-22T11:28:27.377Z,100019.31
2022-11-22T11:30:58.991Z,100016.69
2022-11-22T11:33:32.977Z,100016.47
2022-11-22T11:36:07.096Z,100027.13
2022-11-22T11:38:36.528Z,100021.41
2022-11-22T11:41:43.404Z,100023.00
2022-11-22T11:44:26.251Z,100024.66
2022-11-22T11:46:55.492Z,100035.19
2022-11-22T11:49:28.619Z,100016.88
2022-11-22T11:51:59.612Z,100013.16
2022-11-22T11:54:39.255Z,100008.03
2022-11-22T11:57:11.755Z,100005.56
2022-11-22T11:59:39.563Z,100005.94
2022-11-22T12:02:39.716Z,100003.59
2022-11-22T12:05:14.149Z,99999.03
2022-11-22T12:07:47.924Z,99996.59
2022-11-22T12:10:56.397Z,100002.69
2022-11-22T12:13:30.386Z,100009.00
2022-11-22T12:16:13.764Z,100016.00
2022-11-22T12:18:42.660Z,100019.31
2022-11-22T12:21:13.944Z,100022.97
2022-11-22T12:24:45.255Z,100017.97
2022-11-22T12:27:12.088Z,100011.97
2022-11-22T12:29:42.005Z,100011.44
2022-11-22T12:32:32.636Z,100026.91
2022-11-22T12:35:10.534Z,100025.56
2022-11-22T12:37:56.230Z,100028.75
2022-11-22T12:40:27.814Z,100038.16
2022-11-22T12:43:00.992Z,100030.31
2022-11-22T12:45:48.241Z,100041.91
2022-11-22T12:48:24.221Z,100029.69
2022-11-22T12:51:40.109Z,100028.03
2022-11-22T12:54:14.783Z,100036.91
2022-11-22T12:56:53.114Z,100042.66
2022-11-22T12:59:36.255Z,100037.53
2022-11-22T13:02:40.890Z,100045.50
2022-11-22T13:05:20.451Z,100047.59
2022-11-22T13:08:09.819Z,100048.66
2022-11-22T13:10:56.369Z,100031.03
2022-11-22T13:13:30.362Z,100016.56
2022-11-22T13:16:02.934Z,100019.19
2022-11-22T13:18:34.828Z,100016.38
2022-11-22T13:21:20.891Z,100027.91
2022-11-22T13:24:19.755Z,100036.78
2022-11-22T13:27:03.470Z,100052.03
2022-11-22T13:29:34.863Z,100054.34
2022-11-22T13:32:03.791Z,100048.75
2022-11-22T13:34:36.531Z,100034.22
2022-11-22T13:37:22.472Z,100029.41
2022-11-22T13:39:50.631Z,100041.63
2022-11-22T13:42:28.775Z,100052.03
2022-11-22T13:44:56.554Z,100053.03
2022-11-22T13:47:24.485Z,100052.34
2022-11-22T13:49:54.167Z,100054.97
2022-11-22T13:52:22.309Z,100056.91
2022-11-22T13:54:50.032Z,100072.97
2022-11-22T13:57:34.714Z,100082.38
2022-11-22T14:00:11.513Z,100075.13
2022-11-22T14:02:46.960Z,100063.56
2022-11-22T14:05:17.546Z,100069.50
2022-11-22T14:07:49.715Z,100067.03
2022-11-22T14:11:02.679Z,100071.19
2022-11-22T14:13:52.413Z,100067.03
2022-11-22T14:16:40.023Z,100065.25
2022-11-22T14:19:26.510Z,100061.88
2022-11-22T14:22:13.263Z,100065.41
2022-11-22T14:25:00.001Z,100072.66
2022-11-22T14:28:02.757Z,100060.56
2022-11-22T14:30:54.284Z,100074.31
2022-11-22T14:33:24.297Z,100091.72
2022-11-22T14:36:07.326Z,100088.72
2022-11-22T14:38:43.156Z,100087.22
2022-11-22T14:41:28.532Z,100093.50
2022-11-22T14:44:01.827Z,100105.50
2022-11-22T14:46:53.199Z,100117.97
2022-11-22T14:49:26.743Z,100122.88
2022-11-22T14:51:57.622Z,100124.09
2022-11-22T14:54:30.862Z,100124.50
2022-11-22T14:57:05.117Z,100113.16
2022-11-22T15:00:00.932Z,100113.06
2022-11-22T15:03:06.294Z,100113.25
2022-11-22T15:09:17.857Z,100109.94
2022-11-22T15:09:20.990Z,100105.91
2022-11-22T15:11:53.021Z,100108.84
2022-11-22T15:14:58.070Z,100108.13
2022-11-22T15:58:09.274Z,100173.00
2022-11-22T16:00:37.116Z,100163.78
2022-11-22T16:03:06.920Z,100165.34
2022-11-22T16:06:06.744Z,100152.44
2022-11-22T16:08:29.412Z,100158.00
2022-11-22T16:11:01.813Z,100161.69
2022-11-22T16:13:36.037Z,100167.88
2022-11-22T16:16:12.781Z,100165.28
2022-11-22T16:18:50.836Z,100151.75
2022-11-22T16:21:25.262Z,100153.16
2022-11-22T16:24:16.643Z,100169.34
2022-11-22T16:27:04.147Z,100173.72
2022-11-22T16:29:34.243Z,100190.25
2022-11-22T16:32:20.164Z,100199.84
2022-11-22T16:34:51.664Z,100219.78
2022-11-22T16:37:37.676Z,100233.09
2022-11-22T16:40:07.345Z,100232.19
2022-11-22T16:42:40.784Z,100225.78
2022-11-22T16:45:19.152Z,100226.59
2022-11-22T16:47:54.618Z,100215.38
2022-11-22T16:50:35.802Z,100221.47
2022-11-22T16:53:03.468Z,100212.91
2022-11-22T16:55:31.473Z,100231.69
2022-11-22T16:57:59.047Z,100218.84
2022-11-22T17:00:27.266Z,100221.63
2022-11-22T17:02:55.031Z,100209.78
2022-11-22T17:05:22.494Z,100210.59
2022-11-22T17:07:50.765Z,100196.81
2022-11-22T17:10:19.239Z,100189.66
2022-11-22T17:12:48.867Z,100194.84
2022-11-22T17:15:18.827Z,100191.41
2022-11-22T17:17:46.454Z,100192.41
2022-11-22T17:20:14.268Z,100200.91
2022-11-22T17:22:43.179Z,100209.69
2022-11-22T17:25:13.882Z,100216.47
2022-11-22T17:27:43.591Z,100218.47
2022-11-22T17:30:13.263Z,100216.00
2022-11-22T17:32:41.248Z,100208.13
2022-11-22T17:35:10.513Z,100221.97
2022-11-22T17:37:38.237Z,100224.41
2022-11-22T17:40:06.718Z,100229.50
2022-11-22T17:42:40.782Z,100232.88
2022-11-22T17:45:09.515Z,100241.53
2022-11-22T17:47:37.808Z,100232.34
2022-11-22T17:50:06.106Z,100231.59
2022-11-22T17:52:33.897Z,100227.31
2022-11-22T17:55:05.632Z,100228.38
2022-11-22T17:57:36.282Z,100221.53
2022-11-22T18:00:07.045Z,100220.31
2022-11-22T18:02:35.529Z,100222.16
2022-11-22T18:05:08.477Z,100213.31
2022-11-22T18:07:40.561Z,100211.56
2022-11-22T18:10:10.140Z,100223.53
2022-11-22T18:12:42.296Z,100239.41
2022-11-22T18:15:14.589Z,100229.34
2022-11-22T18:17:44.311Z,100233.00
2022-11-22T18:20:11.910Z,100236.53
2022-11-22T18:22:39.742Z,100239.91
2022-11-22T18:25:07.540Z,100238.94
2022-11-22T18:27:41.924Z,100236.22
2022-11-22T18:30:10.668Z,100244.03
2022-11-22T18:32:38.379Z,100234.38
2022-11-22T18:35:06.462Z,100244.00
2022-11-22T18:37:34.394Z,100247.16
2022-11-22T18:40:06.012Z,100254.13
2022-11-22T18:42:35.974Z,100248.34
2022-11-22T18:45:03.711Z,100264.13
2022-11-22T18:47:31.321Z,100256.31
2022-11-22T18:49:59.382Z,100259.19
2022-11-22T18:52:27.087Z,100257.13
2022-11-22T18:54:56.986Z,100265.81
2022-11-22T18:57:24.620Z,100267.50
2022-11-22T18:59:52.647Z,100270.94
2022-11-22T19:02:25.829Z,100270.22
2022-11-22T19:04:54.403Z,100270.19
2022-11-22T19:07:22.673Z,100274.44
2022-11-22T19:09:53.421Z,100278.72
2022-11-22T19:12:21.574Z,100278.16
2022-11-22T19:14:51.358Z,100284.41
2022-11-22T19:17:22.032Z,100290.34
2022-11-22T19:19:57.017Z,100281.09
2022-11-22T19:22:26.243Z,100281.84
2022-11-22T19:24:54.399Z,100285.44
2022-11-22T19:27:22.175Z,100292.41
2022-11-22T19:29:49.902Z,100297.44
2022-11-22T19:32:18.004Z,100301.78
2022-11-22T19:34:45.505Z,100303.03
2022-11-22T19:37:13.276Z,100304.66
2022-11-22T19:39:40.806Z,100297.06
2022-11-22T19:42:08.460Z,100296.84
2022-11-22T19:44:38.679Z,100302.81
2022-11-22T19:47:06.796Z,100299.41
2022-11-22T19:49:34.360Z,100305.34
2022-11-22T19:52:02.385Z,100307.13
2022-11-22T19:54:30.015Z,100315.56
2022-11-22T19:56:57.874Z,100323.25
2022-11-22T19:59:25.402Z,100333.72
2022-11-22T20:01:53.124Z,100326.88
2022-11-22T20:04:20.703Z,100330.28
2022-11-22T20:06:50.300Z,100334.00
2022-11-22T20:09:18.286Z,100321.16
2022-11-22T20:11:47.688Z,100317.72
2022-11-22T20:14:15.932Z,100333.13
2022-11-22T20:16:44.373Z,100333.84
2022-11-22T20:19:12.539Z,100326.03
2022-11-22T20:21:41.626Z,100325.19
2022-11-22T20:24:09.795Z,100332.09
2022-11-22T20:26:40.420Z,100331.16
2022-11-22T20:29:11.949Z,100338.13
2022-11-22T20:31:41.004Z,100334.44
2022-11-22T20:34:10.235Z,100342.13
2022-11-22T20:36:40.796Z,100352.41
2022-11-22T20:39:10.754Z,100346.38
2022-11-22T20:41:40.539Z,100355.91
2022-11-22T20:44:12.886Z,100360.34
2022-11-22T20:46:41.497Z,100352.59
2022-11-22T20:49:09.142Z,100362.88
2022-11-22T20:51:40.040Z,100369.69
2022-11-22T20:54:08.417Z,100373.38
2022-11-22T20:56:37.687Z,100373.28
2022-11-22T20:59:05.492Z,100369.03
2022-11-22T21:01:34.285Z,100362.94
2022-11-22T21:04:02.843Z,100362.91
2022-11-22T21:06:32.934Z,100365.56
2022-11-22T21:09:01.214Z,100376.44
2022-11-22T21:11:31.128Z,100383.34
2022-11-22T21:13:59.647Z,100379.06
2022-11-22T21:16:29.398Z,100383.19
2022-11-22T21:19:02.184Z,100381.03
2022-11-22T21:21:31.347Z,100378.41
2022-11-22T21:24:02.837Z,100374.75
2022-11-22T21:26:31.006Z,100390.88
2022-11-22T21:28:59.650Z,100396.94
2022-11-22T21:31:28.195Z,100391.03
2022-11-22T21:33:56.024Z,100392.75
2022-11-22T21:36:23.653Z,100398.88
2022-11-22T21:38:51.323Z,100397.03
2022-11-22T21:41:39.187Z,100396.09
2022-11-22T21:44:09.179Z,100393.78
2022-11-22T21:46:37.078Z,100391.94
2022-11-22T21:49:04.794Z,100400.44
2022-11-22T21:51:32.505Z,100405.84
2022-11-22T21:54:01.373Z,100417.72
2022-11-22T21:56:29.474Z,100420.31
2022-11-22T21:58:57.317Z,100418.50
2022-11-22T22:01:25.418Z,100424.78
2022-11-22T22:03:53.984Z,100434.31
2022-11-22T22:06:21.683Z,100415.41
2022-11-22T22:08:50.367Z,100424.75
2022-11-22T22:11:17.942Z,100414.41
2022-11-22T22:13:46.278Z,100422.88
2022-11-22T22:16:23.400Z,100427.47
2022-11-22T22:18:51.160Z,100434.63
2022-11-22T22:21:19.912Z,100416.63
2022-11-22T22:23:47.826Z,100416.56
2022-11-22T22:26:17.154Z,100419.03
2022-11-22T22:28:46.161Z,100415.69
2022-11-22T22:31:21.818Z,100432.25
2022-11-22T22:33:57.325Z,100427.84
2022-11-22T22:36:27.307Z,100430.25
2022-11-22T22:38:55.215Z,100433.81
2022-11-22T22:41:23.374Z,100427.75
2022-11-22T22:43:50.927Z,100428.50
2022-11-22T22:46:24.874Z,100433.59
2022-11-22T22:48:54.924Z,100437.94
2022-11-22T22:51:30.634Z,100439.66
2022-11-22T22:54:01.094Z,100436.13
2022-11-22T22:56:30.660Z,100444.88
2022-11-22T22:59:01.123Z,100443.13
2022-11-22T23:01:31.134Z,100431.06
2022-11-22T23:04:01.083Z,100450.09
2022-11-22T23:06:31.188Z,100440.44
2022-11-22T23:08:59.270Z,100458.41
2022-11-22T23:11:47.943Z,100460.19
2022-11-22T23:14:21.822Z,100454.34
2022-11-22T23:16:54.553Z,100450.84
2022-11-22T23:19:26.227Z,100456.06
2022-11-22T23:21:54.836Z,100453.66
2022-11-22T23:24:22.638Z,100466.66
2022-11-22T23:26:51.521Z,100458.94
2022-11-22T23:29:19.023Z,100481.63
2022-11-22T23:31:46.834Z,100475.84
2022-11-22T23:34:14.395Z,100476.66
2022-11-22T23:36:42.598Z,100481.97
2022-11-22T23:39:11.631Z,100489.03
2022-11-22T23:41:39.740Z,100469.84
2022-11-22T23:44:07.564Z,100481.19
2022-11-22T23:46:35.624Z,100468.22
2022-11-22T23:49:04.969Z,100474.28
2022-11-22T23:51:34.252Z,100472.34
2022-11-22T23:54:04.246Z,100469.78
2022-11-22T23:56:34.927Z,100476.66
2022-11-22T23:59:03.387Z,100474.06
